sensor_id;sensor_type;location;lat;lon;timestamp;P1;durP1;ratioP1;P2;durP2;ratioP2
10467;SDS011;5281;48.878;9.394;2023-03-01T00:02:19;20.80;;;14.00;;
10467;SDS011;5281;48.878;9.394;2023-03-01T00:04:46;18.50;;;12.57;;
10467;SDS011;5281;48.878;9.394;2023-03-01T00:07:13;22.70;;;14.70;;
10467;SDS011;5281;48.878;9.394;2023-03-01T00:09:40;17.47;;;11.77;;
10467;SDS011;5281;48.878;9.394;2023-03-01T00:12:06;18.07;;;12.23;;
10467;SDS011;5281;48.878;9.394;2023-03-01T00:14:34;16.43;;;11.80;;
10467;SDS011;5281;48.878;9.394;2023-03-01T00:17:03;14.87;;;10.97;;
10467;SDS011;5281;48.878;9.394;2023-03-01T00:19:29;15.83;;;11.03;;
10467;SDS011;5281;48.878;9.394;2023-03-01T00:21:57;15.33;;;10.17;;
10467;SDS011;5281;48.878;9.394;2023-03-01T00:24:24;14.37;;;10.23;;
10467;SDS011;5281;48.878;9.394;2023-03-01T00:26:52;17.03;;;10.80;;
10467;SDS011;5281;48.878;9.394;2023-03-01T00:29:20;14.50;;;10.27;;
10467;SDS011;5281;48.878;9.394;2023-03-01T00:31:47;13.53;;;9.73;;
10467;SDS011;5281;48.878;9.394;2023-03-01T00:34:15;15.47;;;11.03;;
10467;SDS011;5281;48.878;9.394;2023-03-01T00:36:41;16.33;;;10.80;;
10467;SDS011;5281;48.878;9.394;2023-03-01T00:39:09;14.00;;;9.93;;
10467;SDS011;5281;48.878;9.394;2023-03-01T00:41:38;14.73;;;10.50;;
10467;SDS011;5281;48.878;9.394;2023-03-01T00:44:05;16.70;;;11.53;;
10467;SDS011;5281;48.878;9.394;2023-03-01T00:46:32;14.47;;;10.40;;
10467;SDS011;5281;48.878;9.394;2023-03-01T00:48:58;15.87;;;10.37;;
10467;SDS011;5281;48.878;9.394;2023-03-01T00:51:28;14.93;;;9.97;;
10467;SDS011;5281;48.878;9.394;2023-03-01T00:53:56;14.80;;;10.07;;
10467;SDS011;5281;48.878;9.394;2023-03-01T00:56:26;15.37;;;10.03;;
10467;SDS011;5281;48.878;9.394;2023-03-01T00:58:53;13.50;;;10.37;;
10467;SDS011;5281;48.878;9.394;2023-03-01T01:01:20;16.87;;;10.57;;
10467;SDS011;5281;48.878;9.394;2023-03-01T01:03:50;12.77;;;9.80;;
10467;SDS011;5281;48.878;9.394;2023-03-01T01:06:18;16.10;;;10.60;;
10467;SDS011;5281;48.878;9.394;2023-03-01T01:08:47;14.97;;;10.97;;
10467;SDS011;5281;48.878;9.394;2023-03-01T01:11:15;18.40;;;10.93;;
10467;SDS011;5281;48.878;9.394;2023-03-01T01:13:43;15.00;;;10.77;;
10467;SDS011;5281;48.878;9.394;2023-03-01T01:16:11;15.63;;;11.00;;
10467;SDS011;5281;48.878;9.394;2023-03-01T01:18:38;18.37;;;10.70;;
10467;SDS011;5281;48.878;9.394;2023-03-01T01:21:06;17.00;;;11.07;;
10467;SDS011;5281;48.878;9.394;2023-03-01T01:23:34;14.60;;;10.83;;
10467;SDS011;5281;48.878;9.394;2023-03-01T01:26:07;16.40;;;10.93;;
10467;SDS011;5281;48.878;9.394;2023-03-01T01:28:35;14.70;;;10.67;;
10467;SDS011;5281;48.878;9.394;2023-03-01T01:31:02;15.90;;;11.30;;
10467;SDS011;5281;48.878;9.394;2023-03-01T01:33:29;14.87;;;10.67;;
10467;SDS011;5281;48.878;9.394;2023-03-01T01:35:56;17.03;;;11.13;;
10467;SDS011;5281;48.878;9.394;2023-03-01T01:38:23;14.27;;;10.80;;
10467;SDS011;5281;48.878;9.394;2023-03-01T01:40:50;15.27;;;11.00;;
10467;SDS011;5281;48.878;9.394;2023-03-01T01:43:20;14.40;;;11.20;;
10467;SDS011;5281;48.878;9.394;2023-03-01T01:45:48;17.10;;;11.83;;
10467;SDS011;5281;48.878;9.394;2023-03-01T01:48:16;19.63;;;11.63;;
10467;SDS011;5281;48.878;9.394;2023-03-01T01:50:46;15.33;;;11.10;;
10467;SDS011;5281;48.878;9.394;2023-03-01T01:53:18;15.03;;;10.97;;
10467;SDS011;5281;48.878;9.394;2023-03-01T01:55:47;16.97;;;11.87;;
10467;SDS011;5281;48.878;9.394;2023-03-01T01:58:23;16.23;;;11.27;;
10467;SDS011;5281;48.878;9.394;2023-03-01T02:00:52;14.30;;;10.63;;
10467;SDS011;5281;48.878;9.394;2023-03-01T02:03:20;16.37;;;11.17;;
10467;SDS011;5281;48.878;9.394;2023-03-01T02:05:55;16.13;;;11.23;;
10467;SDS011;5281;48.878;9.394;2023-03-01T02:08:27;15.63;;;10.80;;
10467;SDS011;5281;48.878;9.394;2023-03-01T02:10:56;18.40;;;11.27;;
10467;SDS011;5281;48.878;9.394;2023-03-01T02:13:27;16.70;;;11.30;;
10467;SDS011;5281;48.878;9.394;2023-03-01T02:15:54;17.33;;;12.03;;
10467;SDS011;5281;48.878;9.394;2023-03-01T02:18:21;16.33;;;11.60;;
10467;SDS011;5281;48.878;9.394;2023-03-01T02:21:00;15.97;;;11.67;;
10467;SDS011;5281;48.878;9.394;2023-03-01T02:23:36;14.53;;;11.47;;
10467;SDS011;5281;48.878;9.394;2023-03-01T02:26:05;19.20;;;11.83;;
10467;SDS011;5281;48.878;9.394;2023-03-01T02:28:37;14.50;;;11.17;;
10467;SDS011;5281;48.878;9.394;2023-03-01T02:31:06;17.47;;;11.33;;
10467;SDS011;5281;48.878;9.394;2023-03-01T02:33:53;17.07;;;11.73;;
10467;SDS011;5281;48.878;9.394;2023-03-01T02:36:21;17.07;;;11.30;;
10467;SDS011;5281;48.878;9.394;2023-03-01T02:38:52;15.53;;;11.63;;
10467;SDS011;5281;48.878;9.394;2023-03-01T02:41:22;15.73;;;11.50;;
10467;SDS011;5281;48.878;9.394;2023-03-01T02:43:52;17.87;;;11.97;;
10467;SDS011;5281;48.878;9.394;2023-03-01T02:46:20;16.93;;;12.43;;
10467;SDS011;5281;48.878;9.394;2023-03-01T02:48:49;17.97;;;12.30;;
10467;SDS011;5281;48.878;9.394;2023-03-01T02:51:21;19.27;;;12.03;;
10467;SDS011;5281;48.878;9.394;2023-03-01T02:53:56;16.77;;;12.03;;
10467;SDS011;5281;48.878;9.394;2023-03-01T02:56:32;19.33;;;11.47;;
10467;SDS011;5281;48.878;9.394;2023-03-01T02:59:01;16.57;;;12.00;;
10467;SDS011;5281;48.878;9.394;2023-03-01T03:01:28;19.10;;;12.73;;
10467;SDS011;5281;48.878;9.394;2023-03-01T03:04:01;16.43;;;11.43;;
10467;SDS011;5281;48.878;9.394;2023-03-01T03:06:29;18.73;;;12.47;;
10467;SDS011;5281;48.878;9.394;2023-03-01T03:08:55;15.93;;;12.20;;
10467;SDS011;5281;48.878;9.394;2023-03-01T03:11:22;14.70;;;11.50;;
10467;SDS011;5281;48.878;9.394;2023-03-01T03:13:49;15.60;;;11.63;;
10467;SDS011;5281;48.878;9.394;2023-03-01T03:16:18;17.23;;;11.80;;
10467;SDS011;5281;48.878;9.394;2023-03-01T03:18:45;18.60;;;11.90;;
10467;SDS011;5281;48.878;9.394;2023-03-01T03:21:12;16.23;;;11.63;;
10467;SDS011;5281;48.878;9.394;2023-03-01T03:23:39;16.10;;;11.87;;
10467;SDS011;5281;48.878;9.394;2023-03-01T03:26:06;19.03;;;12.13;;
10467;SDS011;5281;48.878;9.394;2023-03-01T03:28:33;16.37;;;11.83;;
10467;SDS011;5281;48.878;9.394;2023-03-01T03:31:00;16.43;;;11.93;;
10467;SDS011;5281;48.878;9.394;2023-03-01T03:33:30;17.30;;;12.73;;
10467;SDS011;5281;48.878;9.394;2023-03-01T03:35:57;19.50;;;12.17;;
10467;SDS011;5281;48.878;9.394;2023-03-01T03:38:24;18.87;;;12.60;;
10467;SDS011;5281;48.878;9.394;2023-03-01T03:40:55;16.83;;;11.90;;
10467;SDS011;5281;48.878;9.394;2023-03-01T03:43:27;18.17;;;12.20;;
10467;SDS011;5281;48.878;9.394;2023-03-01T03:45:54;14.93;;;11.67;;
10467;SDS011;5281;48.878;9.394;2023-03-01T03:48:22;16.00;;;11.37;;
10467;SDS011;5281;48.878;9.394;2023-03-01T03:50:51;15.90;;;11.67;;
10467;SDS011;5281;48.878;9.394;2023-03-01T03:53:19;16.13;;;12.57;;
10467;SDS011;5281;48.878;9.394;2023-03-01T03:55:47;16.60;;;11.77;;
10467;SDS011;5281;48.878;9.394;2023-03-01T03:58:16;18.07;;;11.87;;
10467;SDS011;5281;48.878;9.394;2023-03-01T04:00:44;16.77;;;12.43;;
10467;SDS011;5281;48.878;9.394;2023-03-01T04:03:13;17.10;;;11.80;;
10467;SDS011;5281;48.878;9.394;2023-03-01T04:05:41;16.63;;;11.20;;
10467;SDS011;5281;48.878;9.394;2023-03-01T04:08:10;18.17;;;12.70;;
10467;SDS011;5281;48.878;9.394;2023-03-01T04:10:37;18.13;;;12.47;;
10467;SDS011;5281;48.878;9.394;2023-03-01T04:13:06;17.47;;;11.83;;
10467;SDS011;5281;48.878;9.394;2023-03-01T04:15:35;17.30;;;12.27;;
10467;SDS011;5281;48.878;9.394;2023-03-01T04:18:02;17.20;;;12.03;;
10467;SDS011;5281;48.878;9.394;2023-03-01T04:20:29;17.63;;;11.90;;
10467;SDS011;5281;48.878;9.394;2023-03-01T04:23:00;17.83;;;12.07;;
10467;SDS011;5281;48.878;9.394;2023-03-01T04:25:36;16.87;;;12.07;;
10467;SDS011;5281;48.878;9.394;2023-03-01T04:28:04;17.27;;;11.97;;
10467;SDS011;5281;48.878;9.394;2023-03-01T04:30:32;15.73;;;12.10;;
10467;SDS011;5281;48.878;9.394;2023-03-01T04:33:00;16.60;;;12.13;;
10467;SDS011;5281;48.878;9.394;2023-03-01T04:35:28;19.87;;;13.20;;
10467;SDS011;5281;48.878;9.394;2023-03-01T04:37:55;16.63;;;12.67;;
10467;SDS011;5281;48.878;9.394;2023-03-01T04:40:21;18.07;;;12.37;;
10467;SDS011;5281;48.878;9.394;2023-03-01T04:42:50;17.33;;;12.70;;
10467;SDS011;5281;48.878;9.394;2023-03-01T04:45:17;16.93;;;12.23;;
10467;SDS011;5281;48.878;9.394;2023-03-01T04:47:44;16.03;;;11.73;;
10467;SDS011;5281;48.878;9.394;2023-03-01T04:50:13;16.27;;;12.10;;
10467;SDS011;5281;48.878;9.394;2023-03-01T04:52:41;18.00;;;11.43;;
10467;SDS011;5281;48.878;9.394;2023-03-01T04:55:09;17.27;;;11.83;;
10467;SDS011;5281;48.878;9.394;2023-03-01T04:57:36;16.67;;;11.87;;
10467;SDS011;5281;48.878;9.394;2023-03-01T05:00:05;18.90;;;12.20;;
10467;SDS011;5281;48.878;9.394;2023-03-01T05:02:45;17.57;;;11.73;;
10467;SDS011;5281;48.878;9.394;2023-03-01T05:05:18;18.87;;;12.77;;
10467;SDS011;5281;48.878;9.394;2023-03-01T05:07:46;15.67;;;11.73;;
10467;SDS011;5281;48.878;9.394;2023-03-01T05:10:13;18.30;;;12.47;;
10467;SDS011;5281;48.878;9.394;2023-03-01T05:12:40;17.40;;;12.80;;
10467;SDS011;5281;48.878;9.394;2023-03-01T05:15:08;16.87;;;12.13;;
10467;SDS011;5281;48.878;9.394;2023-03-01T05:17:36;18.33;;;12.87;;
10467;SDS011;5281;48.878;9.394;2023-03-01T05:20:02;19.10;;;11.77;;
10467;SDS011;5281;48.878;9.394;2023-03-01T05:22:33;18.27;;;13.20;;
10467;SDS011;5281;48.878;9.394;2023-03-01T05:25:00;17.53;;;12.47;;
10467;SDS011;5281;48.878;9.394;2023-03-01T05:27:27;19.63;;;12.93;;
10467;SDS011;5281;48.878;9.394;2023-03-01T05:29:54;17.47;;;12.33;;
10467;SDS011;5281;48.878;9.394;2023-03-01T05:32:22;18.93;;;12.57;;
10467;SDS011;5281;48.878;9.394;2023-03-01T05:34:49;18.63;;;12.87;;
10467;SDS011;5281;48.878;9.394;2023-03-01T05:37:17;19.03;;;13.00;;
10467;SDS011;5281;48.878;9.394;2023-03-01T05:39:44;17.83;;;12.27;;
10467;SDS011;5281;48.878;9.394;2023-03-01T05:42:11;17.87;;;11.97;;
10467;SDS011;5281;48.878;9.394;2023-03-01T05:44:38;17.87;;;13.20;;
10467;SDS011;5281;48.878;9.394;2023-03-01T05:47:05;17.17;;;12.00;;
10467;SDS011;5281;48.878;9.394;2023-03-01T05:49:33;16.43;;;12.07;;
10467;SDS011;5281;48.878;9.394;2023-03-01T05:52:00;17.63;;;12.47;;
10467;SDS011;5281;48.878;9.394;2023-03-01T05:54:26;18.57;;;12.80;;
10467;SDS011;5281;48.878;9.394;2023-03-01T05:56:53;19.07;;;12.87;;
10467;SDS011;5281;48.878;9.394;2023-03-01T05:59:21;21.40;;;12.77;;
10467;SDS011;5281;48.878;9.394;2023-03-01T06:01:48;16.77;;;12.30;;
10467;SDS011;5281;48.878;9.394;2023-03-01T06:04:15;18.23;;;13.03;;
10467;SDS011;5281;48.878;9.394;2023-03-01T06:06:43;16.83;;;12.73;;
10467;SDS011;5281;48.878;9.394;2023-03-01T06:09:09;19.43;;;13.17;;
10467;SDS011;5281;48.878;9.394;2023-03-01T06:11:36;17.60;;;12.23;;
10467;SDS011;5281;48.878;9.394;2023-03-01T06:14:03;21.83;;;13.10;;
10467;SDS011;5281;48.878;9.394;2023-03-01T06:16:31;15.83;;;12.27;;
10467;SDS011;5281;48.878;9.394;2023-03-01T06:18:58;16.47;;;12.53;;
10467;SDS011;5281;48.878;9.394;2023-03-01T06:21:24;18.43;;;13.27;;
10467;SDS011;5281;48.878;9.394;2023-03-01T06:23:52;17.67;;;12.73;;
10467;SDS011;5281;48.878;9.394;2023-03-01T06:26:19;21.83;;;13.07;;
10467;SDS011;5281;48.878;9.394;2023-03-01T06:28:46;17.80;;;12.50;;
10467;SDS011;5281;48.878;9.394;2023-03-01T06:31:13;19.87;;;13.03;;
10467;SDS011;5281;48.878;9.394;2023-03-01T06:33:39;20.17;;;12.47;;
10467;SDS011;5281;48.878;9.394;2023-03-01T06:36:06;17.67;;;12.70;;
10467;SDS011;5281;48.878;9.394;2023-03-01T06:38:35;19.00;;;13.63;;
10467;SDS011;5281;48.878;9.394;2023-03-01T06:41:03;29.20;;;13.60;;
10467;SDS011;5281;48.878;9.394;2023-03-01T06:43:30;21.17;;;13.87;;
10467;SDS011;5281;48.878;9.394;2023-03-01T06:45:57;18.97;;;13.33;;
10467;SDS011;5281;48.878;9.394;2023-03-01T06:48:23;17.37;;;12.87;;
10467;SDS011;5281;48.878;9.394;2023-03-01T06:50:50;22.13;;;13.87;;
10467;SDS011;5281;48.878;9.394;2023-03-01T06:53:17;21.30;;;14.00;;
10467;SDS011;5281;48.878;9.394;2023-03-01T06:55:43;21.57;;;13.67;;
10467;SDS011;5281;48.878;9.394;2023-03-01T06:58:11;21.93;;;13.17;;
10467;SDS011;5281;48.878;9.394;2023-03-01T07:00:38;19.03;;;12.60;;
10467;SDS011;5281;48.878;9.394;2023-03-01T07:03:05;18.77;;;12.40;;
10467;SDS011;5281;48.878;9.394;2023-03-01T07:05:33;16.50;;;12.20;;
10467;SDS011;5281;48.878;9.394;2023-03-01T07:07:59;17.77;;;12.83;;
10467;SDS011;5281;48.878;9.394;2023-03-01T07:10:26;16.60;;;12.47;;
10467;SDS011;5281;48.878;9.394;2023-03-01T07:12:54;18.03;;;11.87;;
10467;SDS011;5281;48.878;9.394;2023-03-01T07:15:23;16.23;;;11.87;;
10467;SDS011;5281;48.878;9.394;2023-03-01T07:17:50;16.43;;;11.97;;
10467;SDS011;5281;48.878;9.394;2023-03-01T07:20:17;21.83;;;12.50;;
10467;SDS011;5281;48.878;9.394;2023-03-01T07:22:44;16.80;;;12.67;;
10467;SDS011;5281;48.878;9.394;2023-03-01T07:25:11;16.03;;;12.17;;
10467;SDS011;5281;48.878;9.394;2023-03-01T07:27:37;17.10;;;12.93;;
10467;SDS011;5281;48.878;9.394;2023-03-01T07:30:05;17.53;;;12.00;;
10467;SDS011;5281;48.878;9.394;2023-03-01T07:32:34;17.07;;;12.60;;
10467;SDS011;5281;48.878;9.394;2023-03-01T07:35:01;16.87;;;12.50;;
10467;SDS011;5281;48.878;9.394;2023-03-01T07:37:28;15.87;;;12.27;;
10467;SDS011;5281;48.878;9.394;2023-03-01T07:39:55;17.87;;;12.83;;
10467;SDS011;5281;48.878;9.394;2023-03-01T07:42:22;16.57;;;12.23;;
10467;SDS011;5281;48.878;9.394;2023-03-01T07:44:49;17.50;;;13.27;;
10467;SDS011;5281;48.878;9.394;2023-03-01T07:47:16;17.63;;;12.90;;
10467;SDS011;5281;48.878;9.394;2023-03-01T07:49:44;17.60;;;13.23;;
10467;SDS011;5281;48.878;9.394;2023-03-01T07:52:10;16.40;;;13.10;;
10467;SDS011;5281;48.878;9.394;2023-03-01T07:54:37;18.33;;;13.73;;
10467;SDS011;5281;48.878;9.394;2023-03-01T07:57:04;19.00;;;13.17;;
10467;SDS011;5281;48.878;9.394;2023-03-01T07:59:31;19.33;;;12.97;;
10467;SDS011;5281;48.878;9.394;2023-03-01T08:01:58;18.53;;;13.13;;
10467;SDS011;5281;48.878;9.394;2023-03-01T08:04:25;19.00;;;13.60;;
10467;SDS011;5281;48.878;9.394;2023-03-01T08:06:53;21.20;;;13.47;;
10467;SDS011;5281;48.878;9.394;2023-03-01T08:09:21;21.17;;;12.50;;
10467;SDS011;5281;48.878;9.394;2023-03-01T08:11:47;19.93;;;13.10;;
10467;SDS011;5281;48.878;9.394;2023-03-01T08:14:14;21.10;;;13.70;;
10467;SDS011;5281;48.878;9.394;2023-03-01T08:16:41;20.67;;;14.53;;
10467;SDS011;5281;48.878;9.394;2023-03-01T08:19:08;21.97;;;13.47;;
10467;SDS011;5281;48.878;9.394;2023-03-01T08:21:37;18.90;;;13.03;;
10467;SDS011;5281;48.878;9.394;2023-03-01T08:24:05;21.63;;;14.43;;
10467;SDS011;5281;48.878;9.394;2023-03-01T08:26:35;19.90;;;13.10;;
10467;SDS011;5281;48.878;9.394;2023-03-01T08:29:02;22.50;;;14.03;;
10467;SDS011;5281;48.878;9.394;2023-03-01T08:31:30;17.70;;;12.87;;
10467;SDS011;5281;48.878;9.394;2023-03-01T08:34:00;20.47;;;13.20;;
10467;SDS011;5281;48.878;9.394;2023-03-01T08:36:29;20.67;;;14.67;;
10467;SDS011;5281;48.878;9.394;2023-03-01T08:38:58;18.13;;;13.13;;
10467;SDS011;5281;48.878;9.394;2023-03-01T08:41:26;17.90;;;13.47;;
10467;SDS011;5281;48.878;9.394;2023-03-01T08:43:53;19.23;;;13.50;;
10467;SDS011;5281;48.878;9.394;2023-03-01T08:46:23;18.97;;;13.13;;
10467;SDS011;5281;48.878;9.394;2023-03-01T08:48:51;19.73;;;13.30;;
10467;SDS011;5281;48.878;9.394;2023-03-01T08:51:18;18.70;;;12.83;;
10467;SDS011;5281;48.878;9.394;2023-03-01T08:53:46;18.57;;;13.10;;
10467;SDS011;5281;48.878;9.394;2023-03-01T08:56:13;18.47;;;13.90;;
10467;SDS011;5281;48.878;9.394;2023-03-01T08:58:44;19.40;;;13.43;;
10467;SDS011;5281;48.878;9.394;2023-03-01T09:01:12;20.13;;;13.97;;
10467;SDS011;5281;48.878;9.394;2023-03-01T09:03:40;22.20;;;14.67;;
10467;SDS011;5281;48.878;9.394;2023-03-01T09:06:07;18.20;;;12.83;;
10467;SDS011;5281;48.878;9.394;2023-03-01T09:08:34;17.97;;;13.53;;
10467;SDS011;5281;48.878;9.394;2023-03-01T09:11:02;20.40;;;14.13;;
10467;SDS011;5281;48.878;9.394;2023-03-01T09:13:29;19.93;;;13.47;;
10467;SDS011;5281;48.878;9.394;2023-03-01T09:15:58;20.73;;;13.27;;
10467;SDS011;5281;48.878;9.394;2023-03-01T09:18:26;18.30;;;13.33;;
10467;SDS011;5281;48.878;9.394;2023-03-01T09:20:53;19.67;;;13.53;;
10467;SDS011;5281;48.878;9.394;2023-03-01T09:23:26;19.23;;;13.83;;
10467;SDS011;5281;48.878;9.394;2023-03-01T09:25:53;19.67;;;13.10;;
10467;SDS011;5281;48.878;9.394;2023-03-01T09:28:20;16.87;;;12.90;;
10467;SDS011;5281;48.878;9.394;2023-03-01T09:30:48;19.00;;;13.73;;
10467;SDS011;5281;48.878;9.394;2023-03-01T09:33:16;16.70;;;12.77;;
10467;SDS011;5281;48.878;9.394;2023-03-01T09:35:42;17.20;;;12.90;;
10467;SDS011;5281;48.878;9.394;2023-03-01T09:38:12;16.07;;;12.23;;
10467;SDS011;5281;48.878;9.394;2023-03-01T09:40:41;17.07;;;12.27;;
10467;SDS011;5281;48.878;9.394;2023-03-01T09:43:13;17.33;;;11.53;;
10467;SDS011;5281;48.878;9.394;2023-03-01T09:45:45;15.50;;;12.33;;
10467;SDS011;5281;48.878;9.394;2023-03-01T09:48:15;16.00;;;11.90;;
10467;SDS011;5281;48.878;9.394;2023-03-01T09:50:47;15.77;;;11.33;;
10467;SDS011;5281;48.878;9.394;2023-03-01T09:53:15;17.77;;;12.50;;
10467;SDS011;5281;48.878;9.394;2023-03-01T09:55:43;15.90;;;11.27;;
10467;SDS011;5281;48.878;9.394;2023-03-01T09:58:22;15.80;;;11.80;;
10467;SDS011;5281;48.878;9.394;2023-03-01T10:01:02;16.20;;;12.07;;
10467;SDS011;5281;48.878;9.394;2023-03-01T10:03:39;16.77;;;11.03;;
10467;SDS011;5281;48.878;9.394;2023-03-01T10:06:12;15.87;;;11.77;;
10467;SDS011;5281;48.878;9.394;2023-03-01T10:08:42;16.60;;;11.63;;
10467;SDS011;5281;48.878;9.394;2023-03-01T10:11:17;16.60;;;11.57;;
10467;SDS011;5281;48.878;9.394;2023-03-01T10:13:49;18.63;;;10.87;;
10467;SDS011;5281;48.878;9.394;2023-03-01T10:16:21;16.40;;;11.33;;
10467;SDS011;5281;48.878;9.394;2023-03-01T10:18:55;16.13;;;12.00;;
10467;SDS011;5281;48.878;9.394;2023-03-01T10:21:25;19.70;;;12.50;;
10467;SDS011;5281;48.878;9.394;2023-03-01T10:24:05;16.27;;;11.73;;
10467;SDS011;5281;48.878;9.394;2023-03-01T10:26:39;17.87;;;12.87;;
10467;SDS011;5281;48.878;9.394;2023-03-01T10:29:16;16.43;;;12.63;;
10467;SDS011;5281;48.878;9.394;2023-03-01T10:31:44;16.80;;;11.80;;
10467;SDS011;5281;48.878;9.394;2023-03-01T10:34:15;17.17;;;11.80;;
10467;SDS011;5281;48.878;9.394;2023-03-01T10:36:44;17.00;;;11.27;;
10467;SDS011;5281;48.878;9.394;2023-03-01T10:39:15;15.57;;;11.20;;
10467;SDS011;5281;48.878;9.394;2023-03-01T10:41:54;16.33;;;10.77;;
10467;SDS011;5281;48.878;9.394;2023-03-01T10:44:40;15.83;;;11.47;;
10467;SDS011;5281;48.878;9.394;2023-03-01T10:47:13;20.43;;;11.97;;
10467;SDS011;5281;48.878;9.394;2023-03-01T10:49:56;22.03;;;11.37;;
10467;SDS011;5281;48.878;9.394;2023-03-01T10:52:26;14.20;;;10.60;;
10467;SDS011;5281;48.878;9.394;2023-03-01T10:54:55;15.70;;;11.00;;
10467;SDS011;5281;48.878;9.394;2023-03-01T10:57:31;14.13;;;10.80;;
10467;SDS011;5281;48.878;9.394;2023-03-01T11:02:51;12.17;;;9.40;;
10467;SDS011;5281;48.878;9.394;2023-03-01T11:05:30;14.53;;;10.93;;
10467;SDS011;5281;48.878;9.394;2023-03-01T11:07:58;15.57;;;10.77;;
10467;SDS011;5281;48.878;9.394;2023-03-01T11:10:27;14.23;;;11.03;;
10467;SDS011;5281;48.878;9.394;2023-03-01T11:13:05;14.30;;;11.13;;
10467;SDS011;5281;48.878;9.394;2023-03-01T11:15:34;13.73;;;11.03;;
10467;SDS011;5281;48.878;9.394;2023-03-01T11:18:02;16.50;;;11.67;;
10467;SDS011;5281;48.878;9.394;2023-03-01T11:20:31;15.90;;;10.40;;
10467;SDS011;5281;48.878;9.394;2023-03-01T11:23:01;15.40;;;11.27;;
10467;SDS011;5281;48.878;9.394;2023-03-01T11:25:32;15.10;;;11.47;;
10467;SDS011;5281;48.878;9.394;2023-03-01T11:28:03;15.13;;;11.27;;
10467;SDS011;5281;48.878;9.394;2023-03-01T11:30:32;17.50;;;11.47;;
10467;SDS011;5281;48.878;9.394;2023-03-01T11:33:05;13.37;;;10.77;;
10467;SDS011;5281;48.878;9.394;2023-03-01T11:35:42;14.50;;;9.97;;
10467;SDS011;5281;48.878;9.394;2023-03-01T11:38:15;14.07;;;10.50;;
10467;SDS011;5281;48.878;9.394;2023-03-01T11:40:47;14.30;;;10.70;;
10467;SDS011;5281;48.878;9.394;2023-03-01T11:43:20;13.73;;;11.00;;
10467;SDS011;5281;48.878;9.394;2023-03-01T11:45:57;13.03;;;10.80;;
10467;SDS011;5281;48.878;9.394;2023-03-01T11:48:52;14.43;;;10.50;;
10467;SDS011;5281;48.878;9.394;2023-03-01T11:51:33;13.97;;;10.37;;
10467;SDS011;5281;48.878;9.394;2023-03-01T11:54:18;13.77;;;10.23;;
10467;SDS011;5281;48.878;9.394;2023-03-01T11:56:55;12.77;;;9.67;;
10467;SDS011;5281;48.878;9.394;2023-03-01T11:59:39;14.60;;;10.33;;
10467;SDS011;5281;48.878;9.394;2023-03-01T12:08:31;13.43;;;9.57;;
10467;SDS011;5281;48.878;9.394;2023-03-01T12:11:06;13.70;;;10.10;;
10467;SDS011;5281;48.878;9.394;2023-03-01T12:19:41;15.53;;;9.87;;
10467;SDS011;5281;48.878;9.394;2023-03-01T12:22:23;12.67;;;9.83;;
10467;SDS011;5281;48.878;9.394;2023-03-01T12:27:50;13.87;;;10.57;;
10467;SDS011;5281;48.878;9.394;2023-03-01T12:30:32;11.53;;;9.30;;
10467;SDS011;5281;48.878;9.394;2023-03-01T12:33:14;11.20;;;8.77;;
10467;SDS011;5281;48.878;9.394;2023-03-01T12:38:57;14.53;;;10.37;;
10467;SDS011;5281;48.878;9.394;2023-03-01T12:41:42;13.27;;;9.53;;
10467;SDS011;5281;48.878;9.394;2023-03-01T12:44:23;12.97;;;10.50;;
10467;SDS011;5281;48.878;9.394;2023-03-01T12:47:14;14.13;;;10.70;;
10467;SDS011;5281;48.878;9.394;2023-03-01T12:49:49;12.47;;;9.73;;
10467;SDS011;5281;48.878;9.394;2023-03-01T12:52:21;12.33;;;10.13;;
10467;SDS011;5281;48.878;9.394;2023-03-01T12:54:55;15.67;;;11.00;;
10467;SDS011;5281;48.878;9.394;2023-03-01T12:57:26;12.43;;;10.80;;
10467;SDS011;5281;48.878;9.394;2023-03-01T13:00:03;14.60;;;10.63;;
10467;SDS011;5281;48.878;9.394;2023-03-01T13:02:45;15.57;;;10.80;;
10467;SDS011;5281;48.878;9.394;2023-03-01T13:05:29;14.23;;;10.60;;
10467;SDS011;5281;48.878;9.394;2023-03-01T13:08:07;13.63;;;10.03;;
10467;SDS011;5281;48.878;9.394;2023-03-01T13:10:42;17.53;;;11.03;;
10467;SDS011;5281;48.878;9.394;2023-03-01T13:13:18;14.83;;;11.07;;
10467;SDS011;5281;48.878;9.394;2023-03-01T13:15:46;12.87;;;10.97;;
10467;SDS011;5281;48.878;9.394;2023-03-01T13:18:27;13.43;;;10.67;;
10467;SDS011;5281;48.878;9.394;2023-03-01T13:20:57;16.77;;;10.87;;
10467;SDS011;5281;48.878;9.394;2023-03-01T13:23:26;16.13;;;10.50;;
10467;SDS011;5281;48.878;9.394;2023-03-01T13:26:09;15.30;;;11.20;;
10467;SDS011;5281;48.878;9.394;2023-03-01T13:28:45;15.13;;;10.73;;
10467;SDS011;5281;48.878;9.394;2023-03-01T13:34:41;15.40;;;11.70;;
10467;SDS011;5281;48.878;9.394;2023-03-01T13:37:19;15.53;;;12.20;;
10467;SDS011;5281;48.878;9.394;2023-03-01T13:39:47;16.03;;;12.73;;
10467;SDS011;5281;48.878;9.394;2023-03-01T13:42:30;15.70;;;11.37;;
10467;SDS011;5281;48.878;9.394;2023-03-01T13:45:16;13.47;;;10.80;;
10467;SDS011;5281;48.878;9.394;2023-03-01T13:47:49;16.13;;;12.37;;
10467;SDS011;5281;48.878;9.394;2023-03-01T13:50:23;16.27;;;12.20;;
10467;SDS011;5281;48.878;9.394;2023-03-01T13:52:55;17.57;;;12.83;;
10467;SDS011;5281;48.878;9.394;2023-03-01T13:55:25;13.80;;;11.33;;
10467;SDS011;5281;48.878;9.394;2023-03-01T13:57:59;16.47;;;11.63;;
10467;SDS011;5281;48.878;9.394;2023-03-01T14:00:31;19.00;;;12.50;;
10467;SDS011;5281;48.878;9.394;2023-03-01T14:03:08;14.50;;;11.13;;
10467;SDS011;5281;48.878;9.394;2023-03-01T14:05:38;18.37;;;11.57;;
10467;SDS011;5281;48.878;9.394;2023-03-01T14:08:13;15.67;;;11.83;;
10467;SDS011;5281;48.878;9.394;2023-03-01T14:10:48;16.93;;;11.83;;
10467;SDS011;5281;48.878;9.394;2023-03-01T14:13:43;16.93;;;12.03;;
10467;SDS011;5281;48.878;9.394;2023-03-01T14:16:40;15.50;;;11.33;;
10467;SDS011;5281;48.878;9.394;2023-03-01T14:19:15;14.87;;;12.60;;
10467;SDS011;5281;48.878;9.394;2023-03-01T14:21:45;16.53;;;12.10;;
10467;SDS011;5281;48.878;9.394;2023-03-01T14:24:19;17.30;;;13.70;;
10467;SDS011;5281;48.878;9.394;2023-03-01T14:26:48;17.47;;;12.70;;
10467;SDS011;5281;48.878;9.394;2023-03-01T14:29:25;17.23;;;12.73;;
10467;SDS011;5281;48.878;9.394;2023-03-01T14:31:54;14.73;;;12.17;;
10467;SDS011;5281;48.878;9.394;2023-03-01T14:34:21;17.77;;;11.57;;
10467;SDS011;5281;48.878;9.394;2023-03-01T14:36:49;16.20;;;12.63;;
10467;SDS011;5281;48.878;9.394;2023-03-01T14:39:16;18.47;;;13.20;;
10467;SDS011;5281;48.878;9.394;2023-03-01T14:41:44;16.13;;;12.70;;
10467;SDS011;5281;48.878;9.394;2023-03-01T14:44:12;15.93;;;12.47;;
10467;SDS011;5281;48.878;9.394;2023-03-01T14:46:43;20.87;;;12.33;;
10467;SDS011;5281;48.878;9.394;2023-03-01T14:49:12;15.27;;;11.93;;
10467;SDS011;5281;48.878;9.394;2023-03-01T14:51:43;14.73;;;11.73;;
10467;SDS011;5281;48.878;9.394;2023-03-01T14:54:19;14.37;;;11.07;;
10467;SDS011;5281;48.878;9.394;2023-03-01T14:56:47;16.87;;;11.67;;
10467;SDS011;5281;48.878;9.394;2023-03-01T14:59:14;16.00;;;12.17;;
10467;SDS011;5281;48.878;9.394;2023-03-01T15:01:41;15.67;;;11.30;;
10467;SDS011;5281;48.878;9.394;2023-03-01T15:04:12;16.13;;;12.17;;
10467;SDS011;5281;48.878;9.394;2023-03-01T15:06:39;16.53;;;12.67;;
10467;SDS011;5281;48.878;9.394;2023-03-01T15:09:11;17.27;;;12.20;;
10467;SDS011;5281;48.878;9.394;2023-03-01T15:11:39;16.67;;;11.53;;
10467;SDS011;5281;48.878;9.394;2023-03-01T15:16:54;15.50;;;11.80;;
10467;SDS011;5281;48.878;9.394;2023-03-01T15:19:23;17.47;;;12.93;;
10467;SDS011;5281;48.878;9.394;2023-03-01T15:21:53;17.53;;;12.67;;